Lawton, Oklahoma
Current Conditions -  °F | °C
As of 11:58 AM on Thursday 30 Oct 2014 (Local Time) from KFSI Reporting Station
Scattered Clouds Scattered Clouds  
Wind Chill: 69°   Ceiling: Unl
Heat Index: 69°   Visibility: 10mi
Dew Point: 50°   Wind: 7mph
Humidity: 52%   Direction: 270°W
Pressure: 30.15"   Gusts: NA
Location:  34.61°N, 98.39°W
Report Text: KFSI 301658Z AUTO 27006KT 10SM FEW049 SCT060 SCT080 20/10 A3015 RMK AO2 SLPNO T02040102
Loading
Personal Weather Stations






























Interactive Weather Map
Tropical Storm Tracking
New forecast layout! Learn more

10-Day Weather Forecast

Advertisements
Track Severe Weather on mobile